sensor_id;sensor_type;location;lat;lon;timestamp;P1;durP1;ratioP1;P2;durP2;ratioP2
9188;SDS011;34313;50.780;6.084;2023-07-31T00:00:07;9.10;;;4.00;;
9188;SDS011;34313;50.780;6.084;2023-07-31T00:02:36;7.17;;;4.10;;
9188;SDS011;34313;50.780;6.084;2023-07-31T00:05:01;6.60;;;3.57;;
9188;SDS011;34313;50.780;6.084;2023-07-31T00:07:27;17.63;;;4.33;;
9188;SDS011;34313;50.780;6.084;2023-07-31T00:09:52;5.60;;;3.37;;
9188;SDS011;34313;50.780;6.084;2023-07-31T00:12:18;5.13;;;3.33;;
9188;SDS011;34313;50.780;6.084;2023-07-31T00:14:44;8.53;;;3.40;;
9188;SDS011;34313;50.780;6.084;2023-07-31T00:17:10;8.50;;;3.73;;
9188;SDS011;34313;50.780;6.084;2023-07-31T00:19:35;9.27;;;3.70;;
9188;SDS011;34313;50.780;6.084;2023-07-31T00:22:01;11.53;;;3.97;;
9188;SDS011;34313;50.780;6.084;2023-07-31T00:24:26;8.80;;;3.63;;
9188;SDS011;34313;50.780;6.084;2023-07-31T00:26:51;8.23;;;4.17;;
9188;SDS011;34313;50.780;6.084;2023-07-31T00:29:17;5.50;;;3.37;;
9188;SDS011;34313;50.780;6.084;2023-07-31T00:31:42;7.20;;;4.60;;
9188;SDS011;34313;50.780;6.084;2023-07-31T00:34:07;9.07;;;3.77;;
9188;SDS011;34313;50.780;6.084;2023-07-31T00:36:33;9.80;;;3.97;;
9188;SDS011;34313;50.780;6.084;2023-07-31T00:38:58;9.37;;;3.47;;
9188;SDS011;34313;50.780;6.084;2023-07-31T00:41:23;8.87;;;3.40;;
9188;SDS011;34313;50.780;6.084;2023-07-31T00:43:48;7.87;;;3.57;;
9188;SDS011;34313;50.780;6.084;2023-07-31T00:46:14;12.50;;;3.70;;
9188;SDS011;34313;50.780;6.084;2023-07-31T00:48:39;8.37;;;4.10;;
9188;SDS011;34313;50.780;6.084;2023-07-31T00:51:05;5.63;;;3.10;;
9188;SDS011;34313;50.780;6.084;2023-07-31T00:53:32;7.97;;;3.50;;
9188;SDS011;34313;50.780;6.084;2023-07-31T00:55:58;6.50;;;3.07;;
9188;SDS011;34313;50.780;6.084;2023-07-31T00:58:24;12.33;;;3.73;;
9188;SDS011;34313;50.780;6.084;2023-07-31T01:00:49;6.80;;;3.97;;
9188;SDS011;34313;50.780;6.084;2023-07-31T01:03:15;5.40;;;3.00;;
9188;SDS011;34313;50.780;6.084;2023-07-31T01:08:37;8.80;;;3.73;;
9188;SDS011;34313;50.780;6.084;2023-07-31T01:11:27;10.60;;;3.77;;
9188;SDS011;34313;50.780;6.084;2023-07-31T01:13:54;11.27;;;4.40;;
9188;SDS011;34313;50.780;6.084;2023-07-31T01:16:20;17.20;;;3.97;;
9188;SDS011;34313;50.780;6.084;2023-07-31T01:18:45;8.27;;;4.00;;
9188;SDS011;34313;50.780;6.084;2023-07-31T01:21:18;14.63;;;4.07;;
9188;SDS011;34313;50.780;6.084;2023-07-31T01:24:08;9.70;;;4.23;;
9188;SDS011;34313;50.780;6.084;2023-07-31T01:27:02;9.83;;;3.97;;
9188;SDS011;34313;50.780;6.084;2023-07-31T01:31:56;8.90;;;3.90;;
9188;SDS011;34313;50.780;6.084;2023-07-31T01:34:26;10.43;;;3.73;;
9188;SDS011;34313;50.780;6.084;2023-07-31T01:36:53;9.60;;;4.40;;
9188;SDS011;34313;50.780;6.084;2023-07-31T01:39:19;11.60;;;3.70;;
9188;SDS011;34313;50.780;6.084;2023-07-31T01:41:45;10.73;;;4.30;;
9188;SDS011;34313;50.780;6.084;2023-07-31T01:44:10;10.40;;;4.30;;
9188;SDS011;34313;50.780;6.084;2023-07-31T01:46:36;6.87;;;3.90;;
9188;SDS011;34313;50.780;6.084;2023-07-31T01:49:01;9.57;;;4.00;;
9188;SDS011;34313;50.780;6.084;2023-07-31T01:51:26;9.13;;;4.20;;
9188;SDS011;34313;50.780;6.084;2023-07-31T01:53:52;8.37;;;4.43;;
9188;SDS011;34313;50.780;6.084;2023-07-31T01:56:17;9.37;;;4.00;;
9188;SDS011;34313;50.780;6.084;2023-07-31T01:58:42;10.10;;;4.27;;
9188;SDS011;34313;50.780;6.084;2023-07-31T02:01:07;8.40;;;4.03;;
9188;SDS011;34313;50.780;6.084;2023-07-31T02:03:33;9.27;;;4.37;;
9188;SDS011;34313;50.780;6.084;2023-07-31T02:05:58;6.33;;;3.80;;
9188;SDS011;34313;50.780;6.084;2023-07-31T02:08:23;12.30;;;4.80;;
9188;SDS011;34313;50.780;6.084;2023-07-31T02:10:49;9.00;;;3.90;;
9188;SDS011;34313;50.780;6.084;2023-07-31T02:13:14;9.10;;;3.83;;
9188;SDS011;34313;50.780;6.084;2023-07-31T02:15:39;8.23;;;3.97;;
9188;SDS011;34313;50.780;6.084;2023-07-31T02:18:04;7.30;;;3.97;;
9188;SDS011;34313;50.780;6.084;2023-07-31T02:20:32;8.17;;;4.57;;
9188;SDS011;34313;50.780;6.084;2023-07-31T02:22:58;10.73;;;4.70;;
9188;SDS011;34313;50.780;6.084;2023-07-31T02:25:24;9.57;;;4.10;;
9188;SDS011;34313;50.780;6.084;2023-07-31T02:27:49;7.77;;;4.17;;
9188;SDS011;34313;50.780;6.084;2023-07-31T02:30:14;10.13;;;4.03;;
9188;SDS011;34313;50.780;6.084;2023-07-31T02:32:40;9.50;;;3.90;;
9188;SDS011;34313;50.780;6.084;2023-07-31T02:35:05;7.10;;;4.10;;
9188;SDS011;34313;50.780;6.084;2023-07-31T02:37:30;10.43;;;4.00;;
9188;SDS011;34313;50.780;6.084;2023-07-31T02:39:56;6.57;;;3.80;;
9188;SDS011;34313;50.780;6.084;2023-07-31T02:42:21;10.23;;;4.30;;
9188;SDS011;34313;50.780;6.084;2023-07-31T02:44:46;8.47;;;4.50;;
9188;SDS011;34313;50.780;6.084;2023-07-31T02:47:12;9.03;;;3.87;;
9188;SDS011;34313;50.780;6.084;2023-07-31T02:49:37;12.30;;;4.53;;
9188;SDS011;34313;50.780;6.084;2023-07-31T02:52:02;13.40;;;4.17;;
9188;SDS011;34313;50.780;6.084;2023-07-31T02:54:28;10.97;;;4.83;;
9188;SDS011;34313;50.780;6.084;2023-07-31T02:56:53;9.33;;;4.43;;
9188;SDS011;34313;50.780;6.084;2023-07-31T02:59:19;10.43;;;4.63;;
9188;SDS011;34313;50.780;6.084;2023-07-31T03:01:45;7.20;;;4.10;;
9188;SDS011;34313;50.780;6.084;2023-07-31T03:04:10;8.47;;;4.60;;
9188;SDS011;34313;50.780;6.084;2023-07-31T03:06:35;9.40;;;4.97;;
9188;SDS011;34313;50.780;6.084;2023-07-31T03:09:01;10.53;;;4.63;;
9188;SDS011;34313;50.780;6.084;2023-07-31T03:11:26;6.80;;;4.27;;
9188;SDS011;34313;50.780;6.084;2023-07-31T03:13:51;5.73;;;4.70;;
9188;SDS011;34313;50.780;6.084;2023-07-31T03:16:17;7.30;;;4.60;;
9188;SDS011;34313;50.780;6.084;2023-07-31T03:18:42;9.87;;;4.30;;
9188;SDS011;34313;50.780;6.084;2023-07-31T03:21:07;8.57;;;4.40;;
9188;SDS011;34313;50.780;6.084;2023-07-31T03:23:33;11.10;;;4.50;;
9188;SDS011;34313;50.780;6.084;2023-07-31T03:25:58;9.63;;;4.73;;
9188;SDS011;34313;50.780;6.084;2023-07-31T03:28:25;8.77;;;4.40;;
9188;SDS011;34313;50.780;6.084;2023-07-31T03:30:51;9.83;;;5.00;;
9188;SDS011;34313;50.780;6.084;2023-07-31T03:33:16;14.73;;;4.27;;
9188;SDS011;34313;50.780;6.084;2023-07-31T03:35:42;11.13;;;4.33;;
9188;SDS011;34313;50.780;6.084;2023-07-31T03:38:07;9.70;;;4.27;;
9188;SDS011;34313;50.780;6.084;2023-07-31T03:40:32;9.60;;;4.20;;
9188;SDS011;34313;50.780;6.084;2023-07-31T03:42:58;6.17;;;4.20;;
9188;SDS011;34313;50.780;6.084;2023-07-31T03:45:23;7.70;;;4.23;;
9188;SDS011;34313;50.780;6.084;2023-07-31T03:47:48;9.50;;;4.50;;
9188;SDS011;34313;50.780;6.084;2023-07-31T03:50:13;8.90;;;3.80;;
9188;SDS011;34313;50.780;6.084;2023-07-31T03:52:39;7.33;;;4.57;;
9188;SDS011;34313;50.780;6.084;2023-07-31T03:55:04;7.63;;;3.67;;
9188;SDS011;34313;50.780;6.084;2023-07-31T03:57:30;7.40;;;3.90;;
9188;SDS011;34313;50.780;6.084;2023-07-31T03:59:57;8.67;;;4.43;;
9188;SDS011;34313;50.780;6.084;2023-07-31T04:02:23;8.77;;;3.83;;
9188;SDS011;34313;50.780;6.084;2023-07-31T04:04:48;7.23;;;4.00;;
9188;SDS011;34313;50.780;6.084;2023-07-31T04:07:13;7.23;;;4.60;;
9188;SDS011;34313;50.780;6.084;2023-07-31T04:09:39;7.27;;;3.70;;
9188;SDS011;34313;50.780;6.084;2023-07-31T04:12:04;5.90;;;3.73;;
9188;SDS011;34313;50.780;6.084;2023-07-31T04:14:29;5.83;;;3.97;;
9188;SDS011;34313;50.780;6.084;2023-07-31T04:16:55;7.27;;;3.60;;
9188;SDS011;34313;50.780;6.084;2023-07-31T04:19:20;4.90;;;3.57;;
9188;SDS011;34313;50.780;6.084;2023-07-31T04:21:45;8.00;;;4.20;;
9188;SDS011;34313;50.780;6.084;2023-07-31T04:24:11;7.10;;;3.73;;
9188;SDS011;34313;50.780;6.084;2023-07-31T04:26:36;7.20;;;3.30;;
9188;SDS011;34313;50.780;6.084;2023-07-31T04:29:01;8.43;;;3.60;;
9188;SDS011;34313;50.780;6.084;2023-07-31T04:31:26;6.97;;;3.53;;
9188;SDS011;34313;50.780;6.084;2023-07-31T04:33:52;6.80;;;3.10;;
9188;SDS011;34313;50.780;6.084;2023-07-31T04:36:20;4.67;;;2.90;;
9188;SDS011;34313;50.780;6.084;2023-07-31T04:38:54;6.80;;;3.50;;
9188;SDS011;34313;50.780;6.084;2023-07-31T04:41:19;5.93;;;3.60;;
9188;SDS011;34313;50.780;6.084;2023-07-31T04:43:45;6.27;;;3.80;;
9188;SDS011;34313;50.780;6.084;2023-07-31T04:46:10;8.40;;;3.40;;
9188;SDS011;34313;50.780;6.084;2023-07-31T04:48:35;6.40;;;3.60;;
9188;SDS011;34313;50.780;6.084;2023-07-31T04:51:01;6.23;;;2.87;;
9188;SDS011;34313;50.780;6.084;2023-07-31T04:53:26;6.23;;;3.40;;
9188;SDS011;34313;50.780;6.084;2023-07-31T04:55:51;8.60;;;3.50;;
9188;SDS011;34313;50.780;6.084;2023-07-31T04:58:16;8.33;;;4.10;;
9188;SDS011;34313;50.780;6.084;2023-07-31T05:00:42;6.23;;;3.50;;
9188;SDS011;34313;50.780;6.084;2023-07-31T05:03:07;6.30;;;3.70;;
9188;SDS011;34313;50.780;6.084;2023-07-31T05:05:32;4.87;;;3.53;;
9188;SDS011;34313;50.780;6.084;2023-07-31T05:07:58;6.23;;;3.40;;
9188;SDS011;34313;50.780;6.084;2023-07-31T05:10:23;7.30;;;3.67;;
9188;SDS011;34313;50.780;6.084;2023-07-31T05:12:48;8.30;;;3.37;;
9188;SDS011;34313;50.780;6.084;2023-07-31T05:15:14;8.50;;;3.70;;
9188;SDS011;34313;50.780;6.084;2023-07-31T05:17:39;6.67;;;3.20;;
9188;SDS011;34313;50.780;6.084;2023-07-31T05:20:05;6.00;;;3.60;;
9188;SDS011;34313;50.780;6.084;2023-07-31T05:22:30;6.50;;;3.30;;
9188;SDS011;34313;50.780;6.084;2023-07-31T05:24:56;6.63;;;3.50;;
9188;SDS011;34313;50.780;6.084;2023-07-31T05:27:21;5.23;;;3.57;;
9188;SDS011;34313;50.780;6.084;2023-07-31T05:29:46;11.30;;;3.77;;
9188;SDS011;34313;50.780;6.084;2023-07-31T05:32:12;5.80;;;3.47;;
9188;SDS011;34313;50.780;6.084;2023-07-31T05:34:37;8.10;;;3.53;;
9188;SDS011;34313;50.780;6.084;2023-07-31T05:37:02;7.77;;;3.80;;
9188;SDS011;34313;50.780;6.084;2023-07-31T05:39:28;7.63;;;3.43;;
9188;SDS011;34313;50.780;6.084;2023-07-31T05:41:53;9.50;;;3.50;;
9188;SDS011;34313;50.780;6.084;2023-07-31T05:44:18;8.53;;;3.73;;
9188;SDS011;34313;50.780;6.084;2023-07-31T05:46:44;6.20;;;3.47;;
9188;SDS011;34313;50.780;6.084;2023-07-31T05:49:09;8.50;;;3.97;;
9188;SDS011;34313;50.780;6.084;2023-07-31T05:51:34;8.83;;;4.17;;
9188;SDS011;34313;50.780;6.084;2023-07-31T05:53:59;5.30;;;3.30;;
9188;SDS011;34313;50.780;6.084;2023-07-31T05:56:25;6.27;;;3.43;;
9188;SDS011;34313;50.780;6.084;2023-07-31T05:58:52;9.43;;;3.90;;
9188;SDS011;34313;50.780;6.084;2023-07-31T06:01:17;6.63;;;3.23;;
9188;SDS011;34313;50.780;6.084;2023-07-31T06:03:42;11.97;;;4.07;;
9188;SDS011;34313;50.780;6.084;2023-07-31T06:06:08;10.10;;;3.67;;
9188;SDS011;34313;50.780;6.084;2023-07-31T06:08:33;6.17;;;3.57;;
9188;SDS011;34313;50.780;6.084;2023-07-31T06:10:59;6.73;;;3.20;;
9188;SDS011;34313;50.780;6.084;2023-07-31T06:13:24;10.40;;;4.03;;
9188;SDS011;34313;50.780;6.084;2023-07-31T06:15:49;6.70;;;3.70;;
9188;SDS011;34313;50.780;6.084;2023-07-31T06:18:15;11.17;;;3.90;;
9188;SDS011;34313;50.780;6.084;2023-07-31T06:20:41;5.23;;;2.90;;
9188;SDS011;34313;50.780;6.084;2023-07-31T06:23:06;6.07;;;2.83;;
9188;SDS011;34313;50.780;6.084;2023-07-31T06:25:31;7.23;;;3.50;;
9188;SDS011;34313;50.780;6.084;2023-07-31T06:27:57;9.50;;;3.63;;
9188;SDS011;34313;50.780;6.084;2023-07-31T06:30:22;7.20;;;3.03;;
9188;SDS011;34313;50.780;6.084;2023-07-31T06:32:47;6.20;;;3.10;;
9188;SDS011;34313;50.780;6.084;2023-07-31T06:35:13;4.00;;;3.30;;
9188;SDS011;34313;50.780;6.084;2023-07-31T06:37:38;5.50;;;3.17;;
9188;SDS011;34313;50.780;6.084;2023-07-31T06:40:05;6.83;;;3.07;;
9188;SDS011;34313;50.780;6.084;2023-07-31T06:42:33;4.33;;;2.87;;
9188;SDS011;34313;50.780;6.084;2023-07-31T06:44:59;8.30;;;3.80;;
9188;SDS011;34313;50.780;6.084;2023-07-31T06:47:25;7.60;;;3.77;;
9188;SDS011;34313;50.780;6.084;2023-07-31T06:49:51;6.03;;;3.70;;
9188;SDS011;34313;50.780;6.084;2023-07-31T06:52:16;7.40;;;3.53;;
9188;SDS011;34313;50.780;6.084;2023-07-31T06:54:41;4.20;;;2.93;;
9188;SDS011;34313;50.780;6.084;2023-07-31T06:57:07;6.33;;;3.50;;
9188;SDS011;34313;50.780;6.084;2023-07-31T06:59:33;8.90;;;3.43;;
9188;SDS011;34313;50.780;6.084;2023-07-31T07:01:58;7.07;;;3.50;;
9188;SDS011;34313;50.780;6.084;2023-07-31T07:04:23;6.60;;;3.20;;
9188;SDS011;34313;50.780;6.084;2023-07-31T07:06:49;7.60;;;3.30;;
9188;SDS011;34313;50.780;6.084;2023-07-31T07:09:14;6.80;;;3.77;;
9188;SDS011;34313;50.780;6.084;2023-07-31T07:11:39;15.50;;;3.50;;
9188;SDS011;34313;50.780;6.084;2023-07-31T07:14:04;9.17;;;4.57;;
9188;SDS011;34313;50.780;6.084;2023-07-31T07:16:30;7.27;;;3.93;;
9188;SDS011;34313;50.780;6.084;2023-07-31T07:18:55;10.03;;;3.97;;
9188;SDS011;34313;50.780;6.084;2023-07-31T07:21:20;5.80;;;2.77;;
9188;SDS011;34313;50.780;6.084;2023-07-31T07:23:46;5.20;;;3.07;;
9188;SDS011;34313;50.780;6.084;2023-07-31T07:26:11;6.30;;;3.10;;
9188;SDS011;34313;50.780;6.084;2023-07-31T07:28:36;6.47;;;3.50;;
9188;SDS011;34313;50.780;6.084;2023-07-31T07:31:02;6.10;;;3.10;;
9188;SDS011;34313;50.780;6.084;2023-07-31T07:33:28;7.90;;;3.20;;
9188;SDS011;34313;50.780;6.084;2023-07-31T07:36:02;5.60;;;3.17;;
9188;SDS011;34313;50.780;6.084;2023-07-31T07:38:27;7.60;;;3.50;;
9188;SDS011;34313;50.780;6.084;2023-07-31T07:40:53;7.57;;;3.60;;
9188;SDS011;34313;50.780;6.084;2023-07-31T07:43:19;7.80;;;3.40;;
9188;SDS011;34313;50.780;6.084;2023-07-31T07:45:44;4.13;;;2.67;;
9188;SDS011;34313;50.780;6.084;2023-07-31T07:48:09;4.67;;;3.37;;
9188;SDS011;34313;50.780;6.084;2023-07-31T07:50:34;9.77;;;4.23;;
9188;SDS011;34313;50.780;6.084;2023-07-31T07:53:00;6.43;;;3.90;;
9188;SDS011;34313;50.780;6.084;2023-07-31T07:55:25;8.33;;;3.60;;
9188;SDS011;34313;50.780;6.084;2023-07-31T07:57:50;5.63;;;3.37;;
9188;SDS011;34313;50.780;6.084;2023-07-31T08:00:16;9.17;;;3.00;;
9188;SDS011;34313;50.780;6.084;2023-07-31T08:02:42;6.47;;;2.90;;
9188;SDS011;34313;50.780;6.084;2023-07-31T08:05:07;6.70;;;3.47;;
9188;SDS011;34313;50.780;6.084;2023-07-31T08:07:33;7.40;;;3.10;;
9188;SDS011;34313;50.780;6.084;2023-07-31T08:09:58;8.93;;;2.93;;
9188;SDS011;34313;50.780;6.084;2023-07-31T08:12:24;5.57;;;2.70;;
9188;SDS011;34313;50.780;6.084;2023-07-31T08:14:49;6.63;;;3.00;;
9188;SDS011;34313;50.780;6.084;2023-07-31T08:17:14;5.00;;;3.30;;
9188;SDS011;34313;50.780;6.084;2023-07-31T08:19:39;5.20;;;3.13;;
9188;SDS011;34313;50.780;6.084;2023-07-31T08:22:05;7.70;;;3.17;;
9188;SDS011;34313;50.780;6.084;2023-07-31T08:24:30;3.40;;;2.70;;
9188;SDS011;34313;50.780;6.084;2023-07-31T08:26:55;5.60;;;3.30;;
9188;SDS011;34313;50.780;6.084;2023-07-31T08:29:21;15.70;;;5.20;;
9188;SDS011;34313;50.780;6.084;2023-07-31T08:31:46;7.97;;;3.60;;
9188;SDS011;34313;50.780;6.084;2023-07-31T08:34:11;5.77;;;3.50;;
9188;SDS011;34313;50.780;6.084;2023-07-31T08:36:37;5.33;;;3.40;;
9188;SDS011;34313;50.780;6.084;2023-07-31T08:39:02;8.47;;;3.13;;
9188;SDS011;34313;50.780;6.084;2023-07-31T08:41:28;8.00;;;3.27;;
9188;SDS011;34313;50.780;6.084;2023-07-31T08:43:54;9.20;;;3.20;;
9188;SDS011;34313;50.780;6.084;2023-07-31T08:46:20;6.83;;;2.87;;
9188;SDS011;34313;50.780;6.084;2023-07-31T08:48:46;7.23;;;2.87;;
9188;SDS011;34313;50.780;6.084;2023-07-31T08:51:13;7.47;;;3.27;;
9188;SDS011;34313;50.780;6.084;2023-07-31T08:53:39;7.93;;;3.07;;
9188;SDS011;34313;50.780;6.084;2023-07-31T08:56:05;7.03;;;3.23;;
9188;SDS011;34313;50.780;6.084;2023-07-31T08:58:32;8.00;;;3.10;;
9188;SDS011;34313;50.780;6.084;2023-07-31T09:01:01;4.50;;;2.97;;
9188;SDS011;34313;50.780;6.084;2023-07-31T09:03:28;3.70;;;2.70;;
9188;SDS011;34313;50.780;6.084;2023-07-31T09:05:59;6.80;;;3.10;;
9188;SDS011;34313;50.780;6.084;2023-07-31T09:08:24;6.80;;;3.03;;
9188;SDS011;34313;50.780;6.084;2023-07-31T09:10:58;6.43;;;3.37;;
9188;SDS011;34313;50.780;6.084;2023-07-31T09:13:25;8.63;;;3.10;;
9188;SDS011;34313;50.780;6.084;2023-07-31T09:15:53;8.40;;;3.97;;
9188;SDS011;34313;50.780;6.084;2023-07-31T09:18:18;7.30;;;3.20;;
9188;SDS011;34313;50.780;6.084;2023-07-31T09:20:51;6.67;;;3.20;;
9188;SDS011;34313;50.780;6.084;2023-07-31T09:23:39;10.00;;;2.93;;
9188;SDS011;34313;50.780;6.084;2023-07-31T09:26:09;5.17;;;2.73;;
9188;SDS011;34313;50.780;6.084;2023-07-31T09:28:35;9.43;;;2.47;;
9188;SDS011;34313;50.780;6.084;2023-07-31T09:31:01;6.83;;;3.30;;
9188;SDS011;34313;50.780;6.084;2023-07-31T09:33:26;6.37;;;3.30;;
9188;SDS011;34313;50.780;6.084;2023-07-31T09:35:51;4.70;;;3.37;;
9188;SDS011;34313;50.780;6.084;2023-07-31T09:38:17;4.77;;;3.10;;
9188;SDS011;34313;50.780;6.084;2023-07-31T09:40:43;5.77;;;3.20;;
9188;SDS011;34313;50.780;6.084;2023-07-31T09:43:16;6.87;;;2.80;;
9188;SDS011;34313;50.780;6.084;2023-07-31T09:45:43;6.90;;;3.00;;
9188;SDS011;34313;50.780;6.084;2023-07-31T09:48:13;7.50;;;3.10;;
9188;SDS011;34313;50.780;6.084;2023-07-31T09:50:46;4.90;;;2.73;;
9188;SDS011;34313;50.780;6.084;2023-07-31T09:53:13;5.53;;;2.57;;
9188;SDS011;34313;50.780;6.084;2023-07-31T09:55:40;6.13;;;3.17;;
9188;SDS011;34313;50.780;6.084;2023-07-31T09:58:07;3.50;;;2.43;;
9188;SDS011;34313;50.780;6.084;2023-07-31T10:00:34;3.70;;;2.40;;
9188;SDS011;34313;50.780;6.084;2023-07-31T10:03:01;5.47;;;2.60;;
9188;SDS011;34313;50.780;6.084;2023-07-31T10:05:30;7.13;;;2.63;;
9188;SDS011;34313;50.780;6.084;2023-07-31T10:07:59;4.73;;;2.50;;
9188;SDS011;34313;50.780;6.084;2023-07-31T10:10:25;4.63;;;2.50;;
9188;SDS011;34313;50.780;6.084;2023-07-31T10:12:52;2.70;;;2.03;;
9188;SDS011;34313;50.780;6.084;2023-07-31T10:15:19;3.70;;;2.27;;
9188;SDS011;34313;50.780;6.084;2023-07-31T10:17:48;3.20;;;2.03;;
9188;SDS011;34313;50.780;6.084;2023-07-31T10:20:15;4.40;;;2.50;;
9188;SDS011;34313;50.780;6.084;2023-07-31T10:22:43;3.13;;;2.30;;
9188;SDS011;34313;50.780;6.084;2023-07-31T10:25:12;3.23;;;2.00;;
9188;SDS011;34313;50.780;6.084;2023-07-31T10:27:40;2.20;;;2.00;;
9188;SDS011;34313;50.780;6.084;2023-07-31T10:30:08;4.57;;;2.53;;
9188;SDS011;34313;50.780;6.084;2023-07-31T10:32:36;6.70;;;2.00;;
9188;SDS011;34313;50.780;6.084;2023-07-31T10:35:04;2.37;;;1.73;;
9188;SDS011;34313;50.780;6.084;2023-07-31T10:37:36;3.07;;;1.93;;
9188;SDS011;34313;50.780;6.084;2023-07-31T10:42:38;3.50;;;1.90;;
9188;SDS011;34313;50.780;6.084;2023-07-31T10:45:13;5.50;;;1.97;;
9188;SDS011;34313;50.780;6.084;2023-07-31T10:47:48;3.10;;;1.50;;
9188;SDS011;34313;50.780;6.084;2023-07-31T10:50:17;2.63;;;1.53;;
9188;SDS011;34313;50.780;6.084;2023-07-31T10:52:51;2.23;;;1.87;;
9188;SDS011;34313;50.780;6.084;2023-07-31T10:55:29;2.20;;;1.50;;
9188;SDS011;34313;50.780;6.084;2023-07-31T10:58:08;2.30;;;1.53;;
9188;SDS011;34313;50.780;6.084;2023-07-31T11:00:37;1.40;;;1.23;;
9188;SDS011;34313;50.780;6.084;2023-07-31T11:03:07;1.60;;;1.23;;
9188;SDS011;34313;50.780;6.084;2023-07-31T11:05:44;2.27;;;1.60;;
9188;SDS011;34313;50.780;6.084;2023-07-31T11:10:40;2.00;;;1.40;;
9188;SDS011;34313;50.780;6.084;2023-07-31T11:13:06;1.83;;;1.40;;
9188;SDS011;34313;50.780;6.084;2023-07-31T11:15:31;1.60;;;1.50;;
9188;SDS011;34313;50.780;6.084;2023-07-31T11:17:56;2.67;;;1.70;;
9188;SDS011;34313;50.780;6.084;2023-07-31T11:20:25;2.57;;;1.60;;
9188;SDS011;34313;50.780;6.084;2023-07-31T11:22:50;3.20;;;1.80;;
9188;SDS011;34313;50.780;6.084;2023-07-31T11:25:16;3.70;;;1.80;;
9188;SDS011;34313;50.780;6.084;2023-07-31T11:27:41;3.10;;;2.33;;
9188;SDS011;34313;50.780;6.084;2023-07-31T11:30:08;3.37;;;2.00;;
9188;SDS011;34313;50.780;6.084;2023-07-31T11:32:36;3.83;;;2.80;;
9188;SDS011;34313;50.780;6.084;2023-07-31T11:35:02;3.90;;;2.50;;
9188;SDS011;34313;50.780;6.084;2023-07-31T11:37:41;3.10;;;2.20;;
9188;SDS011;34313;50.780;6.084;2023-07-31T11:40:08;4.30;;;2.73;;
9188;SDS011;34313;50.780;6.084;2023-07-31T11:42:34;3.83;;;2.40;;
9188;SDS011;34313;50.780;6.084;2023-07-31T11:45:02;3.20;;;2.20;;
9188;SDS011;34313;50.780;6.084;2023-07-31T11:47:28;2.93;;;2.30;;
9188;SDS011;34313;50.780;6.084;2023-07-31T11:49:53;4.33;;;2.77;;
9188;SDS011;34313;50.780;6.084;2023-07-31T11:52:18;4.03;;;2.70;;
9188;SDS011;34313;50.780;6.084;2023-07-31T11:54:48;3.47;;;2.40;;
9188;SDS011;34313;50.780;6.084;2023-07-31T11:57:13;3.60;;;2.40;;
9188;SDS011;34313;50.780;6.084;2023-07-31T11:59:39;3.10;;;2.20;;
9188;SDS011;34313;50.780;6.084;2023-07-31T12:02:05;3.57;;;2.63;;
9188;SDS011;34313;50.780;6.084;2023-07-31T12:04:30;8.17;;;3.00;;
9188;SDS011;34313;50.780;6.084;2023-07-31T12:06:56;4.47;;;2.87;;
9188;SDS011;34313;50.780;6.084;2023-07-31T12:09:21;4.33;;;3.23;;
9188;SDS011;34313;50.780;6.084;2023-07-31T12:11:47;5.00;;;3.87;;
9188;SDS011;34313;50.780;6.084;2023-07-31T12:14:20;5.97;;;3.07;;
9188;SDS011;34313;50.780;6.084;2023-07-31T12:16:58;7.50;;;3.40;;
9188;SDS011;34313;50.780;6.084;2023-07-31T12:19:24;5.50;;;2.90;;
9188;SDS011;34313;50.780;6.084;2023-07-31T12:21:54;5.83;;;3.60;;
9188;SDS011;34313;50.780;6.084;2023-07-31T12:24:24;5.43;;;3.30;;
9188;SDS011;34313;50.780;6.084;2023-07-31T12:26:51;4.37;;;2.70;;
9188;SDS011;34313;50.780;6.084;2023-07-31T12:29:17;5.47;;;2.80;;
9188;SDS011;34313;50.780;6.084;2023-07-31T12:31:43;4.27;;;3.17;;
9188;SDS011;34313;50.780;6.084;2023-07-31T12:34:19;3.63;;;2.63;;
9188;SDS011;34313;50.780;6.084;2023-07-31T12:36:46;3.73;;;2.83;;
9188;SDS011;34313;50.780;6.084;2023-07-31T12:39:12;3.93;;;2.53;;
9188;SDS011;34313;50.780;6.084;2023-07-31T12:41:37;4.17;;;3.27;;
9188;SDS011;34313;50.780;6.084;2023-07-31T12:44:03;5.87;;;2.93;;
9188;SDS011;34313;50.780;6.084;2023-07-31T12:46:28;3.73;;;3.33;;
9188;SDS011;34313;50.780;6.084;2023-07-31T12:48:54;4.47;;;2.37;;
9188;SDS011;34313;50.780;6.084;2023-07-31T12:51:19;4.80;;;2.77;;
9188;SDS011;34313;50.780;6.084;2023-07-31T12:53:45;3.03;;;2.33;;
9188;SDS011;34313;50.780;6.084;2023-07-31T12:56:11;4.70;;;2.60;;
9188;SDS011;34313;50.780;6.084;2023-07-31T12:58:36;4.90;;;2.40;;
9188;SDS011;34313;50.780;6.084;2023-07-31T13:01:01;2.90;;;2.30;;
9188;SDS011;34313;50.780;6.084;2023-07-31T13:03:27;4.00;;;2.40;;
9188;SDS011;34313;50.780;6.084;2023-07-31T13:05:52;2.93;;;2.47;;
9188;SDS011;34313;50.780;6.084;2023-07-31T13:08:18;5.80;;;2.80;;
9188;SDS011;34313;50.780;6.084;2023-07-31T13:10:43;2.23;;;2.00;;
9188;SDS011;34313;50.780;6.084;2023-07-31T13:13:09;4.07;;;2.17;;
9188;SDS011;34313;50.780;6.084;2023-07-31T13:15:35;2.50;;;2.17;;
9188;SDS011;34313;50.780;6.084;2023-07-31T13:18:00;4.60;;;2.23;;
9188;SDS011;34313;50.780;6.084;2023-07-31T13:20:25;2.70;;;2.50;;
9188;SDS011;34313;50.780;6.084;2023-07-31T13:22:51;4.73;;;2.80;;
9188;SDS011;34313;50.780;6.084;2023-07-31T13:25:16;5.53;;;2.70;;
9188;SDS011;34313;50.780;6.084;2023-07-31T13:27:41;6.37;;;2.73;;
9188;SDS011;34313;50.780;6.084;2023-07-31T13:30:07;4.40;;;3.03;;
9188;SDS011;34313;50.780;6.084;2023-07-31T13:32:33;4.33;;;2.73;;
9188;SDS011;34313;50.780;6.084;2023-07-31T13:34:58;3.87;;;2.93;;
9188;SDS011;34313;50.780;6.084;2023-07-31T13:37:24;5.53;;;3.10;;
9188;SDS011;34313;50.780;6.084;2023-07-31T13:39:49;5.43;;;3.43;;
9188;SDS011;34313;50.780;6.084;2023-07-31T13:42:14;5.47;;;3.10;;
9188;SDS011;34313;50.780;6.084;2023-07-31T13:44:40;9.63;;;3.80;;
9188;SDS011;34313;50.780;6.084;2023-07-31T13:47:07;5.27;;;2.97;;
9188;SDS011;34313;50.780;6.084;2023-07-31T13:49:33;4.93;;;3.13;;
9188;SDS011;34313;50.780;6.084;2023-07-31T13:51:58;7.97;;;3.60;;
9188;SDS011;34313;50.780;6.084;2023-07-31T13:54:24;5.30;;;3.23;;
9188;SDS011;34313;50.780;6.084;2023-07-31T13:56:50;4.90;;;3.20;;
9188;SDS011;34313;50.780;6.084;2023-07-31T13:59:16;5.10;;;3.23;;
9188;SDS011;34313;50.780;6.084;2023-07-31T14:01:42;3.97;;;3.20;;
9188;SDS011;34313;50.780;6.084;2023-07-31T14:04:08;5.23;;;3.87;;
9188;SDS011;34313;50.780;6.084;2023-07-31T14:06:35;7.47;;;4.27;;
9188;SDS011;34313;50.780;6.084;2023-07-31T14:09:01;5.23;;;4.03;;
9188;SDS011;34313;50.780;6.084;2023-07-31T14:11:27;4.10;;;3.27;;
9188;SDS011;34313;50.780;6.084;2023-07-31T14:13:53;4.53;;;3.23;;
9188;SDS011;34313;50.780;6.084;2023-07-31T14:16:18;5.07;;;3.20;;
9188;SDS011;34313;50.780;6.084;2023-07-31T14:18:44;9.57;;;4.00;;
9188;SDS011;34313;50.780;6.084;2023-07-31T14:21:10;4.63;;;3.37;;
9188;SDS011;34313;50.780;6.084;2023-07-31T14:23:36;5.77;;;3.67;;
9188;SDS011;34313;50.780;6.084;2023-07-31T14:26:01;6.03;;;3.67;;
9188;SDS011;34313;50.780;6.084;2023-07-31T14:28:27;7.60;;;4.10;;
9188;SDS011;34313;50.780;6.084;2023-07-31T14:30:52;4.37;;;3.67;;
9188;SDS011;34313;50.780;6.084;2023-07-31T14:33:17;5.00;;;3.83;;
9188;SDS011;34313;50.780;6.084;2023-07-31T14:35:43;4.20;;;2.87;;
9188;SDS011;34313;50.780;6.084;2023-07-31T14:38:08;7.40;;;3.93;;
9188;SDS011;34313;50.780;6.084;2023-07-31T14:40:33;6.50;;;3.80;;
9188;SDS011;34313;50.780;6.084;2023-07-31T14:42:59;4.17;;;3.40;;
9188;SDS011;34313;50.780;6.084;2023-07-31T14:45:24;4.90;;;3.83;;
9188;SDS011;34313;50.780;6.084;2023-07-31T14:47:49;6.23;;;4.00;;
9188;SDS011;34313;50.780;6.084;2023-07-31T14:50:15;6.13;;;3.53;;
9188;SDS011;34313;50.780;6.084;2023-07-31T14:52:41;6.07;;;4.40;;
9188;SDS011;34313;50.780;6.084;2023-07-31T14:55:06;5.40;;;4.17;;
9188;SDS011;34313;50.780;6.084;2023-07-31T14:57:33;5.63;;;3.87;;
9188;SDS011;34313;50.780;6.084;2023-07-31T14:59:59;6.70;;;4.10;;
9188;SDS011;34313;50.780;6.084;2023-07-31T15:02:25;5.77;;;3.83;;
9188;SDS011;34313;50.780;6.084;2023-07-31T15:04:50;5.83;;;4.03;;